Noroton Heights, Connecticut
Current Conditions -  °F | °C
As of 10:56 AM on Saturday 20 Dec 2014 (Local Time) from KHPN Reporting Station
Broken Clouds Broken Clouds  
Wind Chill: -4°   Ceiling: 2300
Heat Index: -1°   Visibility: 10mi
Dew Point: -7°   Wind: 6mph
Humidity: 64%   Direction: 320°NW
Pressure: 30.26"   Gusts: NA
Location:  41.0804°N, 73.4823°W
Report Text: KHPN 201556Z 32005KT 10SM BKN023 M01/M07 A3026 RMK AO2 UPB28E36 SLP257 P0000 T10111072
Loading
Personal Weather Stations






























Interactive Weather Map New forecast layout! Learn more

10-Day Weather Forecast

Advertisements
Track Severe Weather on mobile